Time;durP1;ratioP1;P1;durP2;ratioP2;P2;SDS_P1;SDS_P2;PMS_P1;PMS_P2;Temp;Humidity;BMP_temperature;BMP_pressure;BME280_temperature;BME280_humidity;BME280_pressure;Samples;Min_cycle;Max_cycle;Signal;HPM_P1;HPM_P2
2022/07/04 00:00:16;;;;;;;1.52;0.95;;;;;;;;;;5002058;28;20869;-79
2022/07/04 00:02:43;;;;;;;2.37;1.10;;;;;;;;;;5014305;28;20623;-78
2022/07/04 00:05:10;;;;;;;2.58;1.25;;;;;;;;;;5014370;28;20113;-78
2022/07/04 00:07:42;;;;;;;2.00;1.33;;;;;;;;;;5000478;28;20092;-79
2022/07/04 00:10:09;;;;;;;2.00;1.10;;;;;;;;;;5015557;28;20045;-79
2022/07/04 00:12:35;;;;;;;2.28;1.20;;;;;;;;;;5015985;28;20806;-78
2022/07/04 00:15:02;;;;;;;2.65;1.30;;;;;;;;;;5003111;28;20033;-78
2022/07/04 00:17:27;;;;;;;2.30;1.00;;;;;;;;;;5016022;28;20096;-79
2022/07/04 00:19:53;;;;;;;3.35;1.92;;;;;;;;;;5001353;28;20033;-78
2022/07/04 00:22:18;;;;;;;2.08;1.02;;;;;;;;;;5029640;28;20025;-79
2022/07/04 00:24:43;;;;;;;2.63;1.20;;;;;;;;;;5016156;28;20037;-79
2022/07/04 00:27:09;;;;;;;1.77;1.00;;;;;;;;;;5014089;28;20037;-79
2022/07/04 00:29:34;;;;;;;3.05;1.75;;;;;;;;;;4998593;28;20037;-79
2022/07/04 00:32:00;;;;;;;2.17;1.10;;;;;;;;;;5008029;28;20038;-79
2022/07/04 00:34:25;;;;;;;2.42;1.23;;;;;;;;;;5029328;28;20087;-79
2022/07/04 00:36:51;;;;;;;1.65;1.00;;;;;;;;;;5013576;28;20084;-79
2022/07/04 00:39:16;;;;;;;2.22;1.23;;;;;;;;;;5014899;28;20496;-79
2022/07/04 00:41:42;;;;;;;2.45;1.27;;;;;;;;;;4998264;28;20040;-78
2022/07/04 00:44:10;;;;;;;2.45;1.17;;;;;;;;;;5014747;28;20034;-79
2022/07/04 00:46:35;;;;;;;;;;;;;;;;;;4995992;28;20854;-79
2022/07/04 00:49:03;;;;;;;3.45;1.25;;;;;;;;;;4997326;28;19923;-79
2022/07/04 00:51:29;;;;;;;3.67;1.30;;;;;;;;;;4994832;28;20505;-78
2022/07/04 00:53:54;;;;;;;1.80;1.02;;;;;;;;;;5029324;28;20036;-79
2022/07/04 00:56:20;;;;;;;2.00;1.10;;;;;;;;;;5025913;28;20026;-79
2022/07/04 00:58:46;;;;;;;1.98;1.10;;;;;;;;;;5027101;28;20034;-78
2022/07/04 01:01:11;;;;;;;2.42;1.20;;;;;;;;;;5009405;28;20101;-78
2022/07/04 01:03:37;;;;;;;2.88;1.30;;;;;;;;;;5014188;28;20468;-79
2022/07/04 01:06:02;;;;;;;1.88;1.20;;;;;;;;;;4993787;28;20030;-78
2022/07/04 01:08:28;;;;;;;3.40;1.40;;;;;;;;;;5003757;28;20093;-79
2022/07/04 01:10:55;;;;;;;2.50;1.33;;;;;;;;;;5013177;28;20045;-79
2022/07/04 01:13:21;;;;;;;2.42;1.30;;;;;;;;;;4993984;28;20113;-78
2022/07/04 01:15:46;;;;;;;2.97;1.10;;;;;;;;;;5011585;28;20393;-79
2022/07/04 01:18:12;;;;;;;2.03;1.15;;;;;;;;;;5006353;28;20038;-79
2022/07/04 01:20:37;;;;;;;3.25;1.40;;;;;;;;;;4997644;28;20042;-78
2022/07/04 01:23:03;;;;;;;3.20;1.30;;;;;;;;;;4991813;28;20034;-78
2022/07/04 01:25:29;;;;;;;2.60;1.27;;;;;;;;;;5011582;28;20388;-78
2022/07/04 01:27:54;;;;;;;2.53;1.42;;;;;;;;;;4998256;28;20034;-79
2022/07/04 01:30:19;;;;;;;2.42;1.30;;;;;;;;;;5014401;28;20040;-79
2022/07/04 01:32:45;;;;;;;2.58;1.40;;;;;;;;;;5031075;28;20041;-79
2022/07/04 01:35:12;;;;;;;3.42;1.58;;;;;;;;;;5012990;28;20477;-78
2022/07/04 01:37:38;;;;;;;2.67;1.45;;;;;;;;;;5013202;28;20049;-78
2022/07/04 01:40:04;;;;;;;3.30;1.40;;;;;;;;;;5027891;28;20030;-78
2022/07/04 01:42:29;;;;;;;2.50;1.35;;;;;;;;;;5014693;28;20521;-78
2022/07/04 01:44:54;;;;;;;2.03;1.27;;;;;;;;;;5022438;28;20029;-78
2022/07/04 01:47:20;;;;;;;2.80;1.30;;;;;;;;;;5026780;28;20049;-78
2022/07/04 01:49:45;;;;;;;2.60;1.67;;;;;;;;;;5008056;28;20038;-79
2022/07/04 01:52:11;;;;;;;5.47;1.73;;;;;;;;;;5028542;28;20400;-80
2022/07/04 01:54:36;;;;;;;4.90;1.90;;;;;;;;;;5013293;28;20066;-79
2022/07/04 01:57:07;;;;;;;3.42;1.75;;;;;;;;;;5037098;28;20563;-78
2022/07/04 02:02:19;;;;;;;3.55;1.98;;;;;;;;;;5034909;28;20094;-78
2022/07/04 02:04:44;;;;;;;2.90;1.80;;;;;;;;;;5018186;28;20118;-79
2022/07/04 02:07:09;;;;;;;2.92;1.80;;;;;;;;;;5020861;28;20048;-79
2022/07/04 02:09:35;;;;;;;2.75;1.65;;;;;;;;;;5034699;28;20029;-79
2022/07/04 02:14:44;;;;;;;2.95;1.83;;;;;;;;;;5036543;28;20463;-79
2022/07/04 02:17:10;;;;;;;3.63;2.10;;;;;;;;;;5030308;28;20056;-78
2022/07/04 02:19:35;;;;;;;3.58;2.10;;;;;;;;;;5039461;28;20395;-78
2022/07/04 02:22:01;;;;;;;3.60;2.40;;;;;;;;;;5028546;28;20025;-79
2022/07/04 02:24:28;;;;;;;3.45;2.25;;;;;;;;;;5036063;28;20052;-79
2022/07/04 02:26:53;;;;;;;3.15;2.22;;;;;;;;;;5033780;28;20056;-78
2022/07/04 02:29:18;;;;;;;4.38;2.40;;;;;;;;;;5017951;28;20128;-78
2022/07/04 02:31:44;;;;;;;3.38;2.60;;;;;;;;;;5034919;28;20021;-78
2022/07/04 02:34:09;;;;;;;4.65;3.10;;;;;;;;;;5035145;28;20040;-78
2022/07/04 02:36:35;;;;;;;3.60;2.75;;;;;;;;;;5053455;28;20048;-78
2022/07/04 02:39:00;;;;;;;5.95;3.25;;;;;;;;;;5033397;28;20138;-78
2022/07/04 02:41:25;;;;;;;4.25;3.03;;;;;;;;;;5021828;28;20565;-79
2022/07/04 02:43:51;;;;;;;4.93;3.47;;;;;;;;;;5027817;28;20029;-80
2022/07/04 02:46:17;;;;;;;4.25;2.72;;;;;;;;;;5035179;28;20029;-78
2022/07/04 02:48:42;;;;;;;4.28;2.90;;;;;;;;;;5018743;28;20032;-78
2022/07/04 02:51:08;;;;;;;4.00;2.83;;;;;;;;;;5036051;28;20043;-78
2022/07/04 02:53:33;;;;;;;4.22;3.03;;;;;;;;;;5012769;28;20378;-78
2022/07/04 02:55:58;;;;;;;4.60;3.17;;;;;;;;;;5018180;28;20033;-78
2022/07/04 02:58:24;;;;;;;4.80;3.10;;;;;;;;;;5009913;28;20033;-79
2022/07/04 03:00:49;;;;;;;4.95;3.53;;;;;;;;;;5004757;28;20029;-78
2022/07/04 03:03:14;;;;;;;4.43;3.45;;;;;;;;;;5020289;28;20086;-78
2022/07/04 03:05:40;;;;;;;5.25;2.97;;;;;;;;;;5021599;28;20033;-79
2022/07/04 03:08:06;;;;;;;5.28;3.30;;;;;;;;;;5035308;28;20037;-79
2022/07/04 03:10:31;;;;;;;4.00;3.20;;;;;;;;;;5035608;28;20531;-78
2022/07/04 03:12:57;;;;;;;5.07;3.25;;;;;;;;;;5036222;28;20029;-78
2022/07/04 03:15:22;;;;;;;4.10;2.90;;;;;;;;;;5037193;28;20140;-78
2022/07/04 03:17:47;;;;;;;4.43;3.30;;;;;;;;;;5019419;28;20437;-79
2022/07/04 03:20:13;;;;;;;5.45;3.10;;;;;;;;;;5017872;28;20114;-79
2022/07/04 03:22:38;;;;;;;4.05;2.92;;;;;;;;;;5037854;28;20055;-78
2022/07/04 03:25:05;;;;;;;4.68;3.20;;;;;;;;;;5038850;28;20064;-78
2022/07/04 03:27:30;;;;;;;4.30;2.85;;;;;;;;;;5038594;28;20097;-79
2022/07/04 03:29:55;;;;;;;5.72;3.00;;;;;;;;;;5023736;28;20036;-78
2022/07/04 03:32:21;;;;;;;5.28;3.63;;;;;;;;;;5031466;28;20071;-78
2022/07/04 03:34:46;;;;;;;4.38;3.15;;;;;;;;;;5037256;28;20029;-78
2022/07/04 03:37:11;;;;;;;4.35;3.28;;;;;;;;;;5039150;28;20032;-78
2022/07/04 03:39:37;;;;;;;5.05;3.58;;;;;;;;;;5024451;28;20036;-79
2022/07/04 03:42:02;;;;;;;4.10;3.13;;;;;;;;;;5021548;28;20037;-78
2022/07/04 03:44:28;;;;;;;4.53;3.42;;;;;;;;;;5038881;28;20166;-78
2022/07/04 03:46:53;;;;;;;5.50;4.00;;;;;;;;;;5020470;28;20053;-78
2022/07/04 03:49:18;;;;;;;5.00;4.22;;;;;;;;;;5029646;28;20041;-79
2022/07/04 03:51:44;;;;;;;5.30;3.83;;;;;;;;;;5036147;28;20425;-79
2022/07/04 03:54:09;;;;;;;5.88;4.00;;;;;;;;;;5040998;28;20399;-79
2022/07/04 03:56:34;;;;;;;4.90;4.03;;;;;;;;;;5021150;28;20040;-80
2022/07/04 03:59:00;;;;;;;5.18;3.97;;;;;;;;;;5016778;28;20037;-80
2022/07/04 04:01:25;;;;;;;5.50;4.45;;;;;;;;;;5020399;28;20071;-79
2022/07/04 04:06:34;;;;;;;5.22;4.15;;;;;;;;;;5040345;28;20106;-79
2022/07/04 04:09:00;;;;;;;5.20;4.07;;;;;;;;;;5054915;28;20041;-81
2022/07/04 04:11:25;;;;;;;7.43;4.10;;;;;;;;;;5038111;28;20045;-83
2022/07/04 04:13:50;;;;;;;5.22;3.90;;;;;;;;;;5046304;28;20043;-84
2022/07/04 04:16:16;;;;;;;5.10;3.95;;;;;;;;;;5029801;28;20033;-82
2022/07/04 04:18:41;;;;;;;7.10;4.72;;;;;;;;;;5036616;28;20032;-83
2022/07/04 04:21:06;;;;;;;5.68;3.85;;;;;;;;;;5029838;28;20400;-83
2022/07/04 04:23:32;;;;;;;4.97;3.72;;;;;;;;;;5015096;28;20763;-84
2022/07/04 04:25:58;;;;;;;4.65;3.63;;;;;;;;;;5019128;28;20064;-83
2022/07/04 04:28:23;;;;;;;6.35;3.95;;;;;;;;;;5025224;28;20025;-83
2022/07/04 04:30:50;;;;;;;5.13;3.53;;;;;;;;;;5013792;28;20034;-82
2022/07/04 04:33:15;;;;;;;6.63;3.58;;;;;;;;;;5013348;28;20480;-84
2022/07/04 04:35:40;;;;;;;8.10;3.72;;;;;;;;;;5027471;28;20029;-79
2022/07/04 04:38:06;;;;;;;4.90;3.38;;;;;;;;;;5037863;28;20079;-80
2022/07/04 04:40:31;;;;;;;4.38;3.20;;;;;;;;;;5035120;28;20596;-80
2022/07/04 04:42:59;;;;;;;4.15;3.20;;;;;;;;;;5014278;28;20106;-79
2022/07/04 04:45:24;;;;;;;4.75;3.20;;;;;;;;;;5009424;28;20461;-80
2022/07/04 04:47:51;;;;;;;4.30;2.78;;;;;;;;;;5037236;28;20115;-80
2022/07/04 04:50:17;;;;;;;4.23;3.10;;;;;;;;;;5027303;28;20041;-81
2022/07/04 04:52:42;;;;;;;5.05;3.08;;;;;;;;;;5029686;28;20518;-80
2022/07/04 04:55:08;;;;;;;4.60;2.80;;;;;;;;;;5038365;28;20043;-80
2022/07/04 04:57:36;;;;;;;4.28;3.17;;;;;;;;;;5029164;28;20055;-79
2022/07/04 05:00:04;;;;;;;3.90;2.38;;;;;;;;;;5024300;28;20036;-79
2022/07/04 05:02:29;;;;;;;3.70;2.42;;;;;;;;;;5019900;28;20037;-80
2022/07/04 05:04:55;;;;;;;3.45;2.53;;;;;;;;;;5030013;28;20400;-81
2022/07/04 05:07:20;;;;;;;3.83;2.60;;;;;;;;;;5027710;28;20029;-80
2022/07/04 05:09:45;;;;;;;4.45;2.38;;;;;;;;;;5018473;28;20048;-81
2022/07/04 05:12:11;;;;;;;7.45;2.55;;;;;;;;;;5028349;28;20025;-81
2022/07/04 05:14:36;;;;;;;3.05;1.98;;;;;;;;;;5051984;28;20060;-80
2022/07/04 05:17:02;;;;;;;3.70;2.17;;;;;;;;;;5024069;28;20567;-80
2022/07/04 05:19:27;;;;;;;2.78;1.70;;;;;;;;;;5027717;28;20088;-82
2022/07/04 05:21:52;;;;;;;3.72;1.90;;;;;;;;;;5024613;28;20029;-80
2022/07/04 05:24:18;;;;;;;3.47;1.75;;;;;;;;;;5025955;28;20059;-80
2022/07/04 05:26:43;;;;;;;3.25;1.63;;;;;;;;;;5035845;28;20403;-80
2022/07/04 05:29:08;;;;;;;2.53;1.58;;;;;;;;;;5028289;28;20532;-81
2022/07/04 05:31:34;;;;;;;3.75;1.98;;;;;;;;;;5022175;28;20045;-80
2022/07/04 05:33:59;;;;;;;2.60;1.70;;;;;;;;;;5038582;28;20044;-80
2022/07/04 05:36:26;;;;;;;2.85;1.50;;;;;;;;;;5022309;28;20047;-80
2022/07/04 05:38:51;;;;;;;2.33;1.48;;;;;;;;;;5027029;28;20036;-80
2022/07/04 05:41:16;;;;;;;3.25;1.60;;;;;;;;;;5017648;28;20460;-80
2022/07/04 05:43:42;;;;;;;3.08;1.70;;;;;;;;;;5022166;28;20112;-80
2022/07/04 05:46:08;;;;;;;2.35;1.38;;;;;;;;;;5020894;28;20492;-80
2022/07/04 05:48:33;;;;;;;2.70;1.40;;;;;;;;;;5036101;28;20048;-81
2022/07/04 05:50:58;;;;;;;3.15;1.27;;;;;;;;;;5023323;28;20044;-80
2022/07/04 05:53:24;;;;;;;2.25;1.30;;;;;;;;;;5028173;28;20444;-81
2022/07/04 05:55:49;;;;;;;2.55;1.30;;;;;;;;;;5030402;28;20565;-79
2022/07/04 05:58:14;;;;;;;2.13;1.10;;;;;;;;;;5035022;28;20378;-81
2022/07/04 06:00:40;;;;;;;2.85;1.17;;;;;;;;;;5013163;28;20387;-81
2022/07/04 06:03:06;;;;;;;3.03;1.30;;;;;;;;;;5028588;28;20044;-81
2022/07/04 06:05:32;;;;;;;2.30;1.08;;;;;;;;;;5032910;28;20108;-81
2022/07/04 06:07:57;;;;;;;2.40;1.20;;;;;;;;;;5019679;28;20026;-81
2022/07/04 06:10:25;;;;;;;2.55;1.20;;;;;;;;;;5040764;28;21312;-81
2022/07/04 06:12:50;;;;;;;;;;;;;;;;;;5015413;28;20037;-81
2022/07/04 06:15:15;;;;;;;2.67;1.20;;;;;;;;;;5017712;28;19939;-82
2022/07/04 06:17:41;;;;;;;2.38;1.00;;;;;;;;;;4998636;28;20374;-83
2022/07/04 06:20:07;;;;;;;1.85;0.90;;;;;;;;;;5012731;28;20367;-82
2022/07/04 06:22:53;;;;;;;3.45;1.10;;;;;;;;;;5031174;28;20170;-81
2022/07/04 06:25:39;;;;;;;1.88;0.73;;;;;;;;;;5011519;28;20497;-83
2022/07/04 06:28:04;;;;;;;1.30;0.70;;;;;;;;;;4967726;28;20035;-80
2022/07/04 06:30:30;;;;;;;1.40;0.68;;;;;;;;;;4960739;28;20049;-80
2022/07/04 06:32:57;;;;;;;1.65;1.00;;;;;;;;;;4982596;28;20066;-81
2022/07/04 06:35:44;;;;;;;1.63;0.70;;;;;;;;;;4957712;28;20605;-79
2022/07/04 06:38:10;;;;;;;;;;;;;;;;;;4968171;28;20045;-82
2022/07/04 06:40:36;;;;;;;0.98;0.60;;;;;;;;;;4953786;28;20416;-81
2022/07/04 06:43:02;;;;;;;1.20;0.57;;;;;;;;;;4967537;28;20042;-80
2022/07/04 06:45:27;;;;;;;2.60;0.63;;;;;;;;;;4961249;28;20164;-81
2022/07/04 06:47:52;;;;;;;1.42;0.65;;;;;;;;;;4981871;28;20034;-80
2022/07/04 06:50:18;;;;;;;1.33;0.50;;;;;;;;;;4976117;28;20046;-84
2022/07/04 06:52:44;;;;;;;1.33;0.57;;;;;;;;;;4968809;28;20417;-81
2022/07/04 06:55:10;;;;;;;0.88;0.38;;;;;;;;;;4967419;28;20030;-82
2022/07/04 06:57:35;;;;;;;1.40;0.60;;;;;;;;;;4981405;28;20061;-81
2022/07/04 07:00:02;;;;;;;1.63;0.60;;;;;;;;;;4975528;28;20102;-82
2022/07/04 07:02:28;;;;;;;1.55;0.70;;;;;;;;;;4974178;28;20471;-81
2022/07/04 07:04:56;;;;;;;1.42;0.70;;;;;;;;;;4968651;28;20095;-80
2022/07/04 07:07:24;;;;;;;2.60;0.95;;;;;;;;;;5025035;28;20586;-80
2022/07/04 07:09:49;;;;;;;;;;;;;;;;;;5022182;28;20029;-83
2022/07/04 07:12:15;;;;;;;1.58;0.68;;;;;;;;;;5028096;28;19913;-81
2022/07/04 07:14:40;;;;;;;1.33;0.60;;;;;;;;;;5033549;28;20112;-80
2022/07/04 07:17:05;;;;;;;2.10;0.70;;;;;;;;;;5043768;28;20083;-82
2022/07/04 07:19:31;;;;;;;0.75;0.40;;;;;;;;;;5035306;28;20482;-83
2022/07/04 07:21:56;;;;;;;2.13;0.75;;;;;;;;;;5032063;28;20033;-81
2022/07/04 07:24:23;;;;;;;1.23;0.52;;;;;;;;;;5018010;28;20040;-81
2022/07/04 07:26:48;;;;;;;1.02;0.55;;;;;;;;;;5034342;28;20041;-78
2022/07/04 07:29:14;;;;;;;1.95;0.77;;;;;;;;;;5026871;28;20038;-78
2022/07/04 07:31:39;;;;;;;2.75;0.65;;;;;;;;;;5033502;28;20041;-78
2022/07/04 07:34:04;;;;;;;2.10;0.55;;;;;;;;;;5007894;28;20032;-78
2022/07/04 07:36:30;;;;;;;1.23;0.47;;;;;;;;;;5016712;28;20033;-78
2022/07/04 07:38:55;;;;;;;0.60;0.40;;;;;;;;;;5017707;28;20034;-78
2022/07/04 07:41:22;;;;;;;1.08;0.40;;;;;;;;;;5036207;28;20025;-78
2022/07/04 07:43:47;;;;;;;0.90;0.60;;;;;;;;;;5038767;28;20033;-78
2022/07/04 07:46:12;;;;;;;0.90;0.40;;;;;;;;;;5026439;28;20035;-79
2022/07/04 07:48:38;;;;;;;1.42;0.40;;;;;;;;;;5017976;28;20399;-79
2022/07/04 07:51:03;;;;;;;1.13;0.55;;;;;;;;;;5016565;28;20556;-78
2022/07/04 07:53:28;;;;;;;1.05;0.50;;;;;;;;;;5029891;28;20036;-79
2022/07/04 07:55:54;;;;;;;2.88;0.60;;;;;;;;;;5030835;28;20064;-79
2022/07/04 07:58:19;;;;;;;0.95;0.40;;;;;;;;;;5032038;28;20400;-79
2022/07/04 08:00:45;;;;;;;0.82;0.40;;;;;;;;;;5026718;28;20042;-79
2022/07/04 08:05:55;;;;;;;4.32;0.47;;;;;;;;;;5035413;28;20182;-79
2022/07/04 08:08:23;;;;;;;1.02;0.45;;;;;;;;;;5033536;28;20128;-78
2022/07/04 08:10:48;;;;;;;1.73;0.40;;;;;;;;;;5033540;28;20029;-79
2022/07/04 08:13:13;;;;;;;0.80;0.30;;;;;;;;;;5027555;28;20098;-79
2022/07/04 08:15:39;;;;;;;0.65;0.30;;;;;;;;;;5026179;28;20179;-79
2022/07/04 08:18:04;;;;;;;1.73;0.45;;;;;;;;;;5036672;28;20033;-78
2022/07/04 08:20:30;;;;;;;0.60;0.30;;;;;;;;;;5031337;28;20038;-79
2022/07/04 08:22:55;;;;;;;0.20;0.15;;;;;;;;;;5035447;28;20037;-79
2022/07/04 08:25:21;;;;;;;1.98;0.32;;;;;;;;;;5035136;28;20507;-79
2022/07/04 08:27:46;;;;;;;1.02;0.40;;;;;;;;;;5043478;28;20033;-79
2022/07/04 08:30:11;;;;;;;0.95;0.38;;;;;;;;;;5033795;28;20038;-78
2022/07/04 08:32:37;;;;;;;0.60;0.30;;;;;;;;;;5031674;28;20029;-83
2022/07/04 08:35:03;;;;;;;0.90;0.30;;;;;;;;;;5035672;28;20113;-83
2022/07/04 08:37:29;;;;;;;0.77;0.30;;;;;;;;;;5029990;28;20041;-83
2022/07/04 08:39:55;;;;;;;3.17;0.40;;;;;;;;;;5035075;28;20477;-84
2022/07/04 08:42:22;;;;;;;1.52;0.40;;;;;;;;;;5034706;28;20040;-82
2022/07/04 08:44:52;;;;;;;0.88;0.30;;;;;;;;;;5043468;28;20043;-86
2022/07/04 08:47:21;;;;;;;1.63;0.52;;;;;;;;;;5019141;28;20263;-82
2022/07/04 08:49:55;;;;;;;0.80;0.38;;;;;;;;;;5021310;28;20049;-83
2022/07/04 08:52:40;;;;;;;0.45;0.20;;;;;;;;;;5040652;28;20044;-84
2022/07/04 09:00:37;;;;;;;0.73;0.30;;;;;;;;;;5036570;28;20424;-84
2022/07/04 09:03:03;;;;;;;0.95;0.30;;;;;;;;;;5034751;28;20036;-82
2022/07/04 09:05:49;;;;;;;1.13;0.40;;;;;;;;;;5026109;28;20043;-83
2022/07/04 09:08:15;;;;;;;0.70;0.22;;;;;;;;;;4939509;28;20050;-81
2022/07/04 09:10:40;;;;;;;0.60;0.28;;;;;;;;;;4946620;28;20079;-83
2022/07/04 09:13:09;;;;;;;1.67;0.52;;;;;;;;;;4939944;28;20840;-84
2022/07/04 09:15:35;;;;;;;0.85;0.30;;;;;;;;;;4945070;28;20038;-82
2022/07/04 09:18:01;;;;;;;1.25;0.45;;;;;;;;;;4954512;28;20473;-82
2022/07/04 09:20:31;;;;;;;2.33;0.40;;;;;;;;;;4945645;28;20041;-82
2022/07/04 09:22:57;;;;;;;1.25;0.30;;;;;;;;;;4939137;28;20046;-83
2022/07/04 09:25:23;;;;;;;1.83;0.32;;;;;;;;;;4923972;28;20060;-83
2022/07/04 09:27:51;;;;;;;1.25;0.30;;;;;;;;;;4937307;28;20050;-83
2022/07/04 09:30:22;;;;;;;1.95;0.40;;;;;;;;;;4938785;28;20042;-83
2022/07/04 09:32:54;;;;;;;3.83;0.30;;;;;;;;;;4933901;28;20352;-84
2022/07/04 09:35:26;;;;;;;0.55;0.20;;;;;;;;;;4944321;28;20143;-85
2022/07/04 09:37:53;;;;;;;1.35;0.20;;;;;;;;;;4941730;28;20086;-83
2022/07/04 09:40:25;;;;;;;1.23;0.30;;;;;;;;;;4937166;28;20613;-83
2022/07/04 09:42:50;;;;;;;1.83;0.20;;;;;;;;;;4940200;28;20077;-83
2022/07/04 09:45:16;;;;;;;2.87;0.30;;;;;;;;;;4984492;28;20496;-83
2022/07/04 09:47:45;;;;;;;1.00;0.33;;;;;;;;;;5029470;28;20511;-84
2022/07/04 09:50:13;;;;;;;1.10;0.20;;;;;;;;;;5022640;28;20503;-84
2022/07/04 09:52:49;;;;;;;1.10;0.20;;;;;;;;;;5009445;28;20049;-83
2022/07/04 09:55:25;;;;;;;1.08;0.20;;;;;;;;;;5035311;28;20380;-82
2022/07/04 09:57:51;;;;;;;1.95;0.40;;;;;;;;;;5044139;28;20082;-82
2022/07/04 10:00:17;;;;;;;1.95;0.40;;;;;;;;;;5023163;28;20048;-83
2022/07/04 10:02:42;;;;;;;1.15;0.30;;;;;;;;;;5038650;28;20037;-83
2022/07/04 10:05:08;;;;;;;0.95;0.20;;;;;;;;;;5020675;28;20028;-83
2022/07/04 10:07:43;;;;;;;0.57;0.20;;;;;;;;;;5035186;28;20043;-83
2022/07/04 10:10:24;;;;;;;0.90;0.20;;;;;;;;;;5028041;28;20063;-83
2022/07/04 10:12:51;;;;;;;1.65;0.28;;;;;;;;;;5038747;28;20058;-83
2022/07/04 10:15:17;;;;;;;0.80;0.20;;;;;;;;;;5022431;28;20447;-84
2022/07/04 10:17:45;;;;;;;0.52;0.20;;;;;;;;;;5027331;28;20046;-88
2022/07/04 10:20:11;;;;;;;2.08;0.35;;;;;;;;;;5027018;28;20031;-83
2022/07/04 10:22:37;;;;;;;1.27;0.40;;;;;;;;;;5028841;28;20064;-84
2022/07/04 10:25:03;;;;;;;2.42;0.40;;;;;;;;;;5014666;28;20574;-87
2022/07/04 10:27:30;;;;;;;1.67;0.27;;;;;;;;;;5021320;28;20052;-87
2022/07/04 10:29:56;;;;;;;0.63;0.20;;;;;;;;;;5030173;28;20033;-84
2022/07/04 10:32:22;;;;;;;1.90;0.32;;;;;;;;;;5027402;28;20047;-86
2022/07/04 10:35:39;;;;;;;2.13;0.20;;;;;;;;;;5032845;28;20475;-88
2022/07/04 10:38:07;;;;;;;0.52;0.20;;;;;;;;;;5036668;28;20127;-84
2022/07/04 10:40:57;;;;;;;0.98;0.17;;;;;;;;;;5022140;28;20040;-85
2022/07/04 10:43:35;;;;;;;0.73;0.10;;;;;;;;;;5008341;28;20034;-86
2022/07/04 10:46:12;;;;;;;0.43;0.20;;;;;;;;;;5026253;28;20037;-86
2022/07/04 10:49:13;;;;;;;0.80;0.28;;;;;;;;;;5042585;28;20508;-86
2022/07/04 10:51:48;;;;;;;0.70;0.15;;;;;;;;;;4986396;28;20045;-87
2022/07/04 10:54:15;;;;;;;1.52;0.35;;;;;;;;;;5025485;28;20388;-88
2022/07/04 10:56:56;;;;;;;0.52;0.28;;;;;;;;;;4985304;28;20974;-87
2022/07/04 10:59:28;;;;;;;0.60;0.20;;;;;;;;;;4985967;28;20451;-86
2022/07/04 11:02:19;;;;;;;0.80;0.30;;;;;;;;;;4991621;28;20037;-86
2022/07/04 11:05:09;;;;;;;1.83;0.40;;;;;;;;;;5036618;28;20112;-87
2022/07/04 11:08:07;;;;;;;0.55;0.20;;;;;;;;;;5040442;28;20048;-86
2022/07/04 11:10:38;;;;;;;1.02;0.20;;;;;;;;;;5042691;28;20045;-86
2022/07/04 11:13:07;;;;;;;1.77;0.35;;;;;;;;;;5029319;28;20155;-87
2022/07/04 11:15:32;;;;;;;2.20;0.50;;;;;;;;;;5024463;28;20052;-85
2022/07/04 11:18:12;;;;;;;1.10;0.30;;;;;;;;;;5042221;28;20041;-85
2022/07/04 11:20:43;;;;;;;1.85;0.47;;;;;;;;;;5011982;28;20252;-85
2022/07/04 11:23:08;;;;;;;2.05;0.60;;;;;;;;;;5026130;28;20108;-85
2022/07/04 11:25:34;;;;;;;0.90;0.30;;;;;;;;;;5040190;28;20535;-85
2022/07/04 11:28:35;;;;;;;1.65;0.30;;;;;;;;;;5029986;28;20048;-87
2022/07/04 11:31:00;;;;;;;0.90;0.20;;;;;;;;;;5023094;28;20040;-86
2022/07/04 11:33:31;;;;;;;0.73;0.20;;;;;;;;;;5029738;28;20133;-86
2022/07/04 11:36:17;;;;;;;2.15;0.30;;;;;;;;;;5028576;28;20033;-85
2022/07/04 11:38:54;;;;;;;0.70;0.25;;;;;;;;;;5012397;28;20044;-85
2022/07/04 11:47:09;;;;;;;1.52;0.45;;;;;;;;;;5045430;28;20606;-81
2022/07/04 11:49:35;;;;;;;1.73;0.38;;;;;;;;;;5024288;28;20045;-82
2022/07/04 11:52:01;;;;;;;1.80;0.50;;;;;;;;;;5029706;28;20047;-81
2022/07/04 11:54:27;;;;;;;0.57;0.10;;;;;;;;;;5041934;28;20036;-81
2022/07/04 11:56:52;;;;;;;1.85;0.35;;;;;;;;;;5029755;28;20532;-81
2022/07/04 11:59:18;;;;;;;1.95;0.65;;;;;;;;;;5029285;28;20040;-80
2022/07/04 12:01:44;;;;;;;0.50;0.20;;;;;;;;;;5030125;28;20552;-81
2022/07/04 12:04:18;;;;;;;1.43;0.40;;;;;;;;;;5030842;28;20035;-81
2022/07/04 12:06:46;;;;;;;1.05;0.30;;;;;;;;;;5038841;28;20786;-81
2022/07/04 12:09:12;;;;;;;0.75;0.22;;;;;;;;;;5030221;28;20028;-81
2022/07/04 12:11:54;;;;;;;1.37;0.40;;;;;;;;;;5029966;28;20040;-80
2022/07/04 12:14:19;;;;;;;1.70;0.38;;;;;;;;;;5038688;28;20278;-80
2022/07/04 12:16:47;;;;;;;1.92;0.50;;;;;;;;;;5017150;28;20037;-81
2022/07/04 12:19:13;;;;;;;0.93;0.20;;;;;;;;;;5011412;28;20522;-80
2022/07/04 12:21:38;;;;;;;1.65;0.40;;;;;;;;;;5028919;28;20480;-81
2022/07/04 12:24:04;;;;;;;2.25;0.40;;;;;;;;;;5029404;28;20033;-80
2022/07/04 12:26:32;;;;;;;0.80;0.20;;;;;;;;;;5029933;28;20041;-80
2022/07/04 12:28:58;;;;;;;1.35;0.38;;;;;;;;;;5021855;28;20369;-80
2022/07/04 12:31:42;;;;;;;0.70;0.30;;;;;;;;;;5036885;28;20036;-80
2022/07/04 12:34:17;;;;;;;1.00;0.32;;;;;;;;;;5037219;28;20059;-80
2022/07/04 12:36:54;;;;;;;0.85;0.32;;;;;;;;;;5028015;28;20112;-80
2022/07/04 12:39:32;;;;;;;1.05;0.40;;;;;;;;;;5028408;28;20043;-80
2022/07/04 12:42:05;;;;;;;0.90;0.30;;;;;;;;;;5023337;28;20033;-80
2022/07/04 12:44:30;;;;;;;0.75;0.30;;;;;;;;;;5037905;28;20064;-80
2022/07/04 12:46:56;;;;;;;0.63;0.30;;;;;;;;;;5018368;28;20480;-80
2022/07/04 12:49:21;;;;;;;1.33;0.50;;;;;;;;;;5028881;28;20029;-80
2022/07/04 12:51:47;;;;;;;0.82;0.40;;;;;;;;;;5029764;28;20055;-81
2022/07/04 12:54:12;;;;;;;0.75;0.30;;;;;;;;;;5030555;28;20053;-82
2022/07/04 12:56:45;;;;;;;1.50;0.40;;;;;;;;;;5023671;28;20106;-83
2022/07/04 12:59:16;;;;;;;2.38;0.57;;;;;;;;;;5044061;28;20057;-83
2022/07/04 13:01:42;;;;;;;1.20;0.30;;;;;;;;;;5039183;28;20083;-81
2022/07/04 13:04:08;;;;;;;0.98;0.30;;;;;;;;;;5035773;28;20032;-81
2022/07/04 13:06:54;;;;;;;2.40;0.28;;;;;;;;;;5028303;28;20388;-81
2022/07/04 13:09:20;;;;;;;1.05;0.38;;;;;;;;;;4919159;29;20047;-82
2022/07/04 13:14:29;;;;;;;0.47;0.30;;;;;;;;;;4924102;29;20058;-81
2022/07/04 13:16:55;;;;;;;1.33;0.50;;;;;;;;;;4912396;29;20039;-80
2022/07/04 13:19:20;;;;;;;0.60;0.20;;;;;;;;;;4934726;29;20667;-80
2022/07/04 13:21:47;;;;;;;0.57;0.20;;;;;;;;;;4918973;29;20082;-80
2022/07/04 13:24:13;;;;;;;1.58;0.50;;;;;;;;;;4903799;29;20491;-81
2022/07/04 13:26:39;;;;;;;1.52;0.30;;;;;;;;;;4937124;29;20122;-81
2022/07/04 13:29:05;;;;;;;1.23;0.20;;;;;;;;;;4926468;29;20035;-82
2022/07/04 13:31:50;;;;;;;1.25;0.30;;;;;;;;;;4920919;29;20447;-82
2022/07/04 13:34:17;;;;;;;0.70;0.20;;;;;;;;;;4867982;29;20068;-82
2022/07/04 13:36:42;;;;;;;0.75;0.30;;;;;;;;;;4866395;29;20052;-81
2022/07/04 13:39:08;;;;;;;1.45;0.38;;;;;;;;;;4837753;29;20571;-81
2022/07/04 13:41:34;;;;;;;1.27;0.40;;;;;;;;;;4865234;29;20185;-82
2022/07/04 13:44:03;;;;;;;1.83;0.40;;;;;;;;;;4864223;29;20040;-83
2022/07/04 13:46:29;;;;;;;1.15;0.40;;;;;;;;;;4882059;28;20035;-82
2022/07/04 13:48:54;;;;;;;1.08;0.30;;;;;;;;;;4928815;28;20105;-83
2022/07/04 13:51:20;;;;;;;1.95;0.50;;;;;;;;;;4926314;28;20482;-82
2022/07/04 13:53:45;;;;;;;2.03;0.50;;;;;;;;;;4929562;28;20585;-81
2022/07/04 13:56:12;;;;;;;2.45;0.40;;;;;;;;;;4914072;29;20041;-83
2022/07/04 13:58:38;;;;;;;1.50;0.20;;;;;;;;;;4941442;28;20530;-82
2022/07/04 14:01:03;;;;;;;1.08;0.30;;;;;;;;;;4924887;29;20070;-81
2022/07/04 14:03:28;;;;;;;1.45;0.30;;;;;;;;;;4911082;28;20043;-82
2022/07/04 14:05:54;;;;;;;0.93;0.22;;;;;;;;;;4921472;28;20044;-82
2022/07/04 14:08:19;;;;;;;1.38;0.40;;;;;;;;;;4909183;28;20844;-82
2022/07/04 14:10:45;;;;;;;1.13;0.32;;;;;;;;;;4968572;28;20152;-84
2022/07/04 14:13:10;;;;;;;0.63;0.22;;;;;;;;;;5028259;28;20435;-81
2022/07/04 14:15:35;;;;;;;0.93;0.28;;;;;;;;;;5032929;28;20037;-80
2022/07/04 14:18:03;;;;;;;1.65;0.30;;;;;;;;;;5035118;28;20057;-83
2022/07/04 14:20:28;;;;;;;2.47;0.28;;;;;;;;;;5028271;28;20484;-83
2022/07/04 14:22:54;;;;;;;0.40;0.20;;;;;;;;;;5022855;28;20029;-83
2022/07/04 14:25:19;;;;;;;2.42;0.68;;;;;;;;;;5039294;28;20687;-82
2022/07/04 14:27:44;;;;;;;1.20;0.45;;;;;;;;;;5027904;28;20452;-83
2022/07/04 14:30:10;;;;;;;1.75;0.32;;;;;;;;;;5032711;28;20033;-82
2022/07/04 14:32:35;;;;;;;0.95;0.30;;;;;;;;;;5036920;28;20123;-82
2022/07/04 14:35:02;;;;;;;0.68;0.38;;;;;;;;;;5027620;28;20028;-82
2022/07/04 14:37:28;;;;;;;1.73;0.60;;;;;;;;;;5027129;28;20036;-82
2022/07/04 14:39:53;;;;;;;1.67;0.40;;;;;;;;;;5020403;28;20372;-82
2022/07/04 14:42:18;;;;;;;0.75;0.30;;;;;;;;;;5024904;28;20500;-82
2022/07/04 14:44:44;;;;;;;1.02;0.32;;;;;;;;;;5018995;28;20754;-82
2022/07/04 14:47:12;;;;;;;2.58;0.40;;;;;;;;;;5026139;28;20041;-81
2022/07/04 14:49:37;;;;;;;0.80;0.32;;;;;;;;;;5021242;28;20087;-82
2022/07/04 14:52:03;;;;;;;0.60;0.30;;;;;;;;;;5035995;28;20874;-81
2022/07/04 14:54:28;;;;;;;2.35;0.40;;;;;;;;;;5023220;28;20040;-82
2022/07/04 14:56:54;;;;;;;0.93;0.30;;;;;;;;;;5028548;28;20033;-82
2022/07/04 14:59:19;;;;;;;0.55;0.20;;;;;;;;;;5020355;28;20436;-83
2022/07/04 15:01:45;;;;;;;0.70;0.28;;;;;;;;;;5022734;28;20086;-81
2022/07/04 15:04:10;;;;;;;0.82;0.38;;;;;;;;;;5025795;28;20038;-82
2022/07/04 15:06:35;;;;;;;1.52;0.40;;;;;;;;;;5027592;28;20504;-82
2022/07/04 15:09:05;;;;;;;0.63;0.30;;;;;;;;;;5029003;28;20025;-83